Terminal Aerodrome Forecast
Issued by NWS

Home | Current Version | Previous Version | Text Only | Print | Product List | Glossary On
Versions: 1 2 3 4 5 6 7 8 9 10 11 12 13
000
FTUS45 KRIW 271100
TAFRKS
TAF
KRKS 271124Z 2712/2812 22006KT P6SM VCFG FEW005 SCT060
     FM271500 28008KT P6SM FEW060 SCT100
     FM272000 VRB12G18KT P6SM VCTS SCT035 BKN060CB
     FM280200 24007KT P6SM VCSH BKN060=

USA.gov is the U.S. government's official web portal to all federal, state and local government web resources and services.